Time;durP1;ratioP1;P1;durP2;ratioP2;P2;SDS_P1;SDS_P2;PMS_P1;PMS_P2;Temp;Humidity;BMP_temperature;BMP_pressure;BME280_temperature;BME280_humidity;BME280_pressure;Samples;Min_cycle;Max_cycle;Signal;HPM_P1;HPM_P2
2022/08/25 00:00:23;;;;;;;41.67;13.43;;;;;;;20.63;54.22;100723.44;4919234;23;20123;-94
2022/08/25 00:03:21;;;;;;;32.50;12.40;;;;;;;20.62;54.31;100725.41;4868162;29;20041;-94
2022/08/25 00:06:33;;;;;;;37.67;13.30;;;;;;;20.64;52.52;100725.06;4854313;29;20045;-93
2022/08/25 00:16:02;;;;;;;57.50;14.60;;;;;;;20.42;52.59;100688.19;4871973;29;20498;-93
2022/08/25 00:21:43;;;;;;;47.22;14.27;;;;;;;20.71;50.45;100721.72;4886359;29;20059;-93
2022/08/25 00:27:55;;;;;;;31.20;11.43;;;;;;;20.79;49.85;100724.34;4890692;29;20514;-92
2022/08/25 00:34:59;;;;;;;30.35;11.02;;;;;;;20.34;47.92;100641.91;4883151;29;20051;-91
2022/08/25 00:37:49;;;;;;;35.55;11.80;;;;;;;20.56;47.55;100664.84;4859903;29;20097;-93
2022/08/25 00:40:42;;;;;;;31.67;12.35;;;;;;;20.38;47.42;100622.59;4870501;29;20055;-93
2022/08/25 00:43:59;;;;;;;36.92;13.70;;;;;;;20.82;47.93;100693.09;4857035;29;20040;-93
2022/08/25 00:46:55;;;;;;;34.47;13.57;;;;;;;20.34;48.24;100624.44;4786707;29;20052;-92
2022/08/25 00:50:03;;;;;;;;;;;;;;;;;;;;;
2022/08/25 00:53:16;;;;;;;49.03;13.20;;;;;;;20.37;50.34;100629.31;4786727;29;20046;-94
2022/08/25 01:08:30;;;;;;;64.57;14.40;;;;;;;20.15;51.97;100620.25;4788137;30;20051;-96
2022/08/25 02:05:12;;;;;;;66.40;16.10;;;;;;;19.88;52.33;100635.59;4934598;24;20119;-93
2022/08/25 02:07:41;;;;;;;61.08;14.98;;;;;;;20.17;54.47;100684.59;4876336;29;20441;-93
2022/08/25 02:10:09;;;;;;;51.47;14.68;;;;;;;20.31;54.53;100708.44;4906891;29;20498;-93
2022/08/25 02:12:39;;;;;;;62.63;14.52;;;;;;;20.08;54.51;100681.09;4888709;29;20092;-92
2022/08/25 02:20:00;;;;;;;;;;;;;;;;;;;;;
2022/08/25 02:58:47;;;;;;;47.33;16.17;;;;;;;19.83;56.39;100716.28;1935979;23;20313;-91
2022/08/25 03:01:18;;;;;;;57.88;17.60;;;;;;;19.59;56.53;100677.31;1519990;23;20250;-92
2022/08/25 03:03:51;;;;;;;61.45;17.13;;;;;;;19.43;56.95;100660.50;4824671;29;20054;-94
2022/08/25 03:06:59;;;;;;;62.40;18.27;;;;;;;19.11;56.35;100610.22;4804436;29;20047;-96
2022/08/25 03:09:29;;;;;;;58.83;16.77;;;;;;;19.49;56.30;100664.69;4785422;29;20140;-95
2022/08/25 03:12:35;;;;;;;55.20;16.83;;;;;;;19.41;57.17;100654.50;4822297;29;20077;-94
2022/08/25 03:15:26;;;;;;;54.38;16.95;;;;;;;19.11;57.91;100612.19;5328833;23;20048;-94
2022/08/25 03:39:13;;;;;;;;;;;;;;;;;;;;;
2022/08/25 03:46:04;;;;;;;84.55;24.63;;;;;;;19.32;60.43;100624.03;4824931;29;20082;-95
2022/08/25 03:52:09;;;;;;;;;;;;;;;;;;;;;
2022/08/25 04:02:24;;;;;;;80.53;19.15;;;;;;;19.85;54.10;100607.72;4857406;29;20073;-95
2022/08/25 04:05:19;;;;;;;60.42;17.17;;;;;;;19.86;54.77;100609.34;4870365;29;20100;-94
2022/08/25 04:11:31;;;;;;;51.28;15.55;;;;;;;20.72;53.85;100701.09;4873623;29;20377;-93
2022/08/25 04:14:07;;;;;;;52.03;15.00;;;;;;;20.23;53.24;100601.03;4862974;29;20144;-94
2022/08/25 04:17:27;;;;;;;40.70;14.98;;;;;;;20.95;54.38;100699.44;4852238;29;20103;-94
2022/08/25 04:20:07;;;;;;;51.60;13.68;;;;;;;21.04;54.03;100691.00;4839928;29;20049;-96
2022/08/25 04:23:00;;;;;;;51.78;14.90;;;;;;;20.72;54.00;100626.84;4848175;29;20042;-93
2022/08/25 04:25:36;;;;;;;55.00;14.40;;;;;;;21.20;53.67;100682.75;4870059;29;20064;-96
2022/08/25 04:28:13;;;;;;;50.67;14.75;;;;;;;20.59;53.59;100573.28;4875309;29;20109;-93
2022/08/25 04:31:08;;;;;;;45.83;15.10;;;;;;;20.73;54.70;100574.88;4847228;29;20052;-93
2022/08/25 04:34:12;;;;;;;46.15;13.75;;;;;;;20.83;55.68;100568.84;4839621;29;20045;-93
2022/08/25 04:37:06;;;;;;;39.47;14.55;;;;;;;20.97;55.16;100579.56;4858569;29;20050;-93
2022/08/25 04:39:36;;;;;;;44.33;15.07;;;;;;;21.66;55.70;100675.78;4806306;29;20042;-95
2022/08/25 04:42:54;;;;;;;;;;;;;;;;;;;;;
2022/08/25 04:45:31;;;;;;;36.75;14.00;;;;;;;21.21;55.00;100585.03;4767565;30;20055;-93
2022/08/25 04:51:28;;;;;;;;;;;;;;;;;;;;;
2022/08/25 04:54:39;;;;;;;40.17;13.35;;;;;;;21.40;55.24;100566.91;4801028;29;20050;-93
2022/08/25 04:57:49;;;;;;;36.35;13.75;;;;;;;21.51;55.74;100568.00;4810668;29;20070;-94
2022/08/25 05:03:52;;;;;;;43.10;14.23;;;;;;;22.10;54.73;100628.41;4802425;29;20081;-93
2022/08/25 05:10:43;;;;;;;44.30;14.70;;;;;;;22.52;52.50;100661.31;4803113;29;20107;-93
2022/08/25 05:14:23;;;;;;;52.05;15.35;;;;;;;22.65;52.70;100662.84;4815406;29;20042;-94
2022/08/25 05:17:10;;;;;;;45.50;15.90;;;;;;;22.11;52.39;100556.81;4836113;29;20144;-96
2022/08/25 05:20:02;;;;;;;50.47;15.25;;;;;;;22.43;52.11;100597.41;4840476;29;20053;-94
2022/08/25 05:22:33;;;;;;;41.47;14.63;;;;;;;22.36;52.54;100565.78;4808922;29;20066;-94
2022/08/25 05:25:09;;;;;;;56.05;16.63;;;;;;;22.42;51.16;100561.56;4784699;29;20054;-92
2022/08/25 05:27:45;;;;;;;53.42;16.10;;;;;;;22.95;51.18;100628.91;4764404;30;20075;-93
2022/08/25 05:30:15;;;;;;;41.08;15.85;;;;;;;23.25;52.27;100672.97;4781955;30;20051;-93
2022/08/25 05:32:43;;;;;;;46.20;16.88;;;;;;;23.31;53.19;100660.31;4790449;30;20931;-94
2022/08/25 05:35:11;;;;;;;42.00;18.05;;;;;;;22.80;52.31;100562.78;4769833;29;20054;-93
2022/08/25 05:38:04;;;;;;;53.95;17.17;;;;;;;23.45;51.40;100653.06;4784454;29;20065;-93
2022/08/25 05:41:14;;;;;;;40.83;15.00;;;;;;;23.10;48.95;100572.22;4799895;29;20103;-92
2022/08/25 05:43:42;;;;;;;48.85;16.20;;;;;;;23.49;49.11;100622.44;4772429;29;20050;-94
2022/08/25 05:46:10;;;;;;;31.45;13.32;;;;;;;23.56;46.54;100610.59;4784404;29;20133;-92
2022/08/25 05:48:39;;;;;;;48.13;15.70;;;;;;;23.79;47.16;100630.22;4770594;29;20059;-94
2022/08/25 05:51:09;;;;;;;48.05;16.30;;;;;;;23.44;47.87;100555.75;4769041;30;20047;-94
2022/08/25 05:53:46;;;;;;;26.60;12.85;;;;;;;23.55;45.76;100558.75;4777086;30;20063;-96
2022/08/25 05:56:33;;;;;;;33.38;14.27;;;;;;;23.63;46.43;100550.13;4779768;30;20154;-94
2022/08/25 05:59:04;;;;;;;32.30;14.35;;;;;;;23.71;45.30;100550.28;4776591;29;20129;-95
2022/08/25 06:04:50;;;;;;;40.50;14.93;;;;;;;24.13;45.01;100594.88;4838250;23;20491;-93
2022/08/25 06:07:16;;;;;;;29.58;13.70;;;;;;;24.06;44.14;100564.84;4853797;29;20040;-95
2022/08/25 06:09:45;;;;;;;34.58;14.88;;;;;;;24.48;44.04;100614.25;4844995;29;20041;-95
2022/08/25 06:12:11;;;;;;;37.75;13.30;;;;;;;24.17;43.14;100553.03;4855164;29;20499;-93
2022/08/25 06:14:39;;;;;;;30.05;12.85;;;;;;;24.66;42.09;100624.91;4874927;29;20055;-95
2022/08/25 06:17:05;;;;;;;25.33;13.32;;;;;;;24.45;41.80;100561.88;4879379;23;20052;-95
2022/08/25 06:19:34;;;;;;;33.88;13.75;;;;;;;25.06;41.88;100655.84;4873222;29;20065;-96
2022/08/25 06:22:03;;;;;;;35.50;13.50;;;;;;;24.80;42.92;100605.50;4877685;29;20541;-95
2022/08/25 06:24:33;;;;;;;40.20;13.38;;;;;;;24.77;40.61;100587.53;4879974;29;20056;-96
2022/08/25 06:27:26;;;;;;;57.50;14.90;;;;;;;24.94;39.74;100591.75;4867173;29;20052;-96
2022/08/25 06:32:52;;;;;;;;;;;;;;;;;;;;;
2022/08/25 06:35:26;;;;;;;49.88;15.75;;;;;;;25.05;42.53;100564.69;4867966;29;20048;-95
2022/08/25 06:38:01;;;;;;;53.58;18.23;;;;;;;25.14;41.41;100569.25;4879698;29;20024;-95
2022/08/25 06:40:30;;;;;;;47.92;16.83;;;;;;;25.19;39.05;100554.88;4868928;29;20044;-95
2022/08/25 06:42:56;;;;;;;;;;;;;;;25.87;38.76;100656.47;4867354;29;20143;-94
2022/08/25 06:53:56;;;;;;;61.25;17.50;;;;;;;25.83;39.47;100588.38;4908598;29;20075;-94
2022/08/25 07:02:16;;;;;;;63.38;16.40;;;;;;;26.17;41.24;100600.31;4902370;23;20066;-93
2022/08/25 07:04:42;;;;;;;60.45;16.85;;;;;;;25.90;41.11;100546.44;4866281;29;20044;-94
2022/08/25 07:07:21;;;;;;;58.05;16.75;;;;;;;26.13;40.52;100568.66;4860115;24;20055;-92
2022/08/25 07:12:16;;;;;;;27.45;14.20;;;;;;;26.37;41.58;100582.03;4928640;23;20590;-92
2022/08/25 07:15:28;;;;;;;29.00;14.00;;;;;;;26.57;39.20;100601.44;4875301;29;20036;-93
2022/08/25 07:17:57;;;;;;;29.83;13.33;;;;;;;26.86;40.71;100634.09;4782412;29;20047;-92
2022/08/25 07:20:26;;;;;;;33.63;12.98;;;;;;;26.76;40.53;100606.78;4796039;29;20093;-92
2022/08/25 07:22:52;;;;;;;26.77;13.15;;;;;;;26.84;39.83;100608.41;4781184;29;20051;-91
2022/08/25 07:27:48;;;;;;;32.45;13.68;;;;;;;26.95;39.63;100597.22;4809956;29;20072;-92
2022/08/25 07:30:15;;;;;;;25.27;13.43;;;;;;;27.18;39.34;100619.41;4779653;29;20059;-91
2022/08/25 07:32:42;;;;;;;29.48;11.93;;;;;;;27.22;37.21;100613.81;4779904;29;20096;-94
2022/08/25 07:35:14;;;;;;;22.20;12.48;;;;;;;27.08;37.71;100580.84;4779515;29;20061;-93
2022/08/25 07:38:00;;;;;;;90.60;14.20;;;;;;;27.21;38.14;100586.94;4792182;29;20041;-94
2022/08/25 07:40:47;;;;;;;38.83;12.90;;;;;;;27.13;36.97;100572.09;4795150;29;20043;-94
2022/08/25 07:43:20;;;;;;;36.42;13.13;;;;;;;27.40;37.51;100595.84;4763113;29;20039;-94
2022/08/25 07:45:49;;;;;;;31.08;12.25;;;;;;;27.63;36.02;100617.19;4762894;29;20099;-94
2022/08/25 07:48:18;;;;;;;27.95;12.18;;;;;;;27.28;36.39;100539.22;4777346;29;20050;-93
2022/08/25 07:50:49;;;;;;;28.48;12.18;;;;;;;27.69;36.48;100598.72;4812617;29;20039;-93
2022/08/25 07:53:19;;;;;;;26.42;12.82;;;;;;;27.63;36.48;100580.66;4795877;29;20056;-92
2022/08/25 07:58:14;;;;;;;33.03;13.68;;;;;;;27.56;37.08;100547.72;4916030;29;20455;-94
2022/08/25 08:00:53;;;;;;;23.17;12.93;;;;;;;27.94;36.81;100598.78;4870824;29;20061;-95
2022/08/25 08:05:49;;;;;;;27.90;11.63;;;;;;;28.02;34.95;100594.78;4924653;23;20063;-92
2022/08/25 08:08:15;;;;;;;38.63;11.90;;;;;;;27.92;34.99;100569.47;4894677;29;20099;-93
2022/08/25 08:10:47;;;;;;;;;;;;;;;28.15;34.77;100600.00;4871557;29;20160;-91
2022/08/25 08:15:44;;;;;;;61.67;15.13;;;;;;;28.17;35.89;100578.69;4914490;29;20045;-93
2022/08/25 08:18:12;;;;;;;26.38;12.73;;;;;;;27.97;35.82;100538.16;4884073;29;20044;-92
2022/08/25 08:20:58;;;;;;;26.38;12.32;;;;;;;27.86;35.63;100510.84;4871932;29;20544;-93
2022/08/25 08:23:43;;;;;;;29.73;11.73;;;;;;;28.03;32.79;100526.09;4890922;29;20055;-94
2022/08/25 08:27:11;;;;;;;29.17;13.15;;;;;;;28.41;33.62;100574.31;4917853;23;20059;-94
2022/08/25 08:30:05;;;;;;;29.75;11.82;;;;;;;28.50;34.43;100576.69;4893726;29;20058;-93
2022/08/25 08:32:48;;;;;;;26.63;12.60;;;;;;;28.27;32.77;100527.25;4887613;29;20052;-94
2022/08/25 08:35:43;;;;;;;25.38;11.40;;;;;;;28.63;29.47;100568.63;4868588;29;20151;-92
2022/08/25 08:38:11;;;;;;;32.17;12.52;;;;;;;28.32;32.05;100518.44;4864999;29;20151;-89
2022/08/25 08:44:19;;;;;;;126.95;47.50;;;;;;;28.82;33.57;100570.19;4877574;29;20177;-89
2022/08/25 08:46:55;;;;;;;46.00;15.93;;;;;;;28.86;32.42;100563.31;4877198;29;20045;-89
2022/08/25 08:50:00;;;;;;;34.95;14.20;;;;;;;28.66;32.18;100526.41;4882479;29;20474;-88
2022/08/25 08:52:36;;;;;;;26.17;13.18;;;;;;;28.99;33.83;100560.84;4846422;29;20044;-88
2022/08/25 08:55:43;;;;;;;27.48;13.07;;;;;;;29.02;34.84;100562.88;4863563;29;20061;-88
2022/08/25 08:58:37;;;;;;;26.52;12.93;;;;;;;29.05;32.84;100556.44;4845576;29;20067;-89
2022/08/25 09:01:08;;;;;;;27.70;13.43;;;;;;;29.07;33.16;100551.19;4871758;29;20470;-87
2022/08/25 09:04:27;;;;;;;25.63;13.00;;;;;;;29.12;33.42;100550.78;4876310;29;20108;-87
2022/08/25 09:06:56;;;;;;;25.02;13.32;;;;;;;29.22;32.30;100554.75;4861565;29;20116;-90
2022/08/25 09:10:11;;;;;;;23.52;12.35;;;;;;;29.30;30.56;100547.06;4855710;29;20103;-89
2022/08/25 09:13:15;;;;;;;30.35;14.85;;;;;;;29.40;29.97;100540.56;4899958;29;20497;-88
2022/08/25 09:19:01;;;;;;;20.93;12.00;;;;;;;29.47;29.65;100537.69;4904183;29;20028;-90
2022/08/25 09:24:36;;;;;;;30.05;15.43;;;;;;;29.27;31.09;100538.22;4897708;29;20107;-88
2022/08/25 09:28:00;;;;;;;23.38;13.55;;;;;;;29.10;30.92;100541.91;4890023;29;20098;-90
2022/08/25 09:30:58;;;;;;;;;;;;;;;29.17;31.57;100529.81;4905750;29;20054;-90
2022/08/25 09:33:56;;;;;;;27.27;11.90;;;;;;;29.41;29.22;100525.28;4919532;29;19923;-90
2022/08/25 09:36:34;;;;;;;31.75;13.23;;;;;;;29.41;28.64;100500.72;4880384;29;20186;-88
2022/08/25 09:39:25;;;;;;;44.80;14.05;;;;;;;29.69;30.69;100522.25;4919262;29;20044;-90
2022/08/25 09:42:08;;;;;;;23.25;11.73;;;;;;;29.46;29.92;100477.72;4921099;29;20134;-89
2022/08/25 09:44:59;;;;;;;23.52;10.95;;;;;;;29.85;26.79;100518.91;4933173;29;20035;-90
2022/08/25 09:47:30;;;;;;;147.05;19.83;;;;;;;29.56;25.65;100472.41;4907117;29;20054;-89
2022/08/25 09:50:02;;;;;;;42.47;19.27;;;;;;;29.83;26.41;100503.63;4877370;29;20418;-89
2022/08/25 09:52:37;;;;;;;63.35;25.48;;;;;;;29.87;27.80;100508.03;4872110;29;20063;-91
2022/08/25 09:55:12;;;;;;;52.65;17.00;;;;;;;30.08;28.72;100509.84;4872706;29;20426;-91
2022/08/25 09:57:46;;;;;;;24.13;12.30;;;;;;;30.17;27.17;100504.53;4891910;29;20047;-90
2022/08/25 10:00:19;;;;;;;33.03;12.47;;;;;;;30.26;27.01;100504.03;4888724;29;20044;-90
2022/08/25 10:03:01;;;;;;;22.92;12.57;;;;;;;30.19;26.52;100488.00;4901276;29;20181;-91
2022/08/25 10:05:30;;;;;;;53.40;13.82;;;;;;;30.23;27.28;100481.50;4904834;29;20126;-88
2022/08/25 10:07:59;;;;;;;19.15;11.65;;;;;;;30.31;27.09;100488.69;4904226;29;20048;-88
2022/08/25 10:10:31;;;;;;;24.05;11.15;;;;;;;30.47;26.31;100491.75;4904743;29;20079;-89
2022/08/25 10:13:39;;;;;;;23.52;12.68;;;;;;;30.37;29.80;100461.63;4890585;29;20063;-88
2022/08/25 10:16:09;;;;;;;27.08;11.48;;;;;;;30.64;28.22;100490.72;4915153;29;20064;-90
2022/08/25 10:19:28;;;;;;;22.63;11.68;;;;;;;30.39;27.03;100440.22;4893641;29;20046;-89
2022/08/25 10:22:42;;;;;;;19.02;10.65;;;;;;;30.61;26.53;100488.75;4860886;29;20185;-90
2022/08/25 10:29:22;;;;;;;32.13;12.70;;;;;;;30.41;25.84;100496.25;4876997;29;20128;-89
2022/08/25 10:32:53;;;;;;;22.52;12.18;;;;;;;30.26;26.07;100487.13;4837786;29;20061;-94
2022/08/25 10:35:39;;;;;;;26.10;13.02;;;;;;;30.07;27.74;100479.25;5119596;23;20056;-93
2022/08/25 10:38:20;;;;;;;19.25;12.35;;;;;;;29.97;29.32;100478.16;4902512;29;20046;-90
2022/08/25 10:41:08;;;;;;;26.55;12.57;;;;;;;29.54;28.57;100436.22;4865280;29;20053;-91
2022/08/25 10:47:11;;;;;;;29.00;12.25;;;;;;;30.15;26.12;100461.81;4842212;23;20516;-90
2022/08/25 10:57:35;;;;;;;134.73;55.78;;;;;;;30.24;27.55;100381.59;4882991;23;20060;-93
2022/08/25 11:00:36;;;;;;;40.35;18.75;;;;;;;30.79;28.61;100457.47;4833837;29;20054;-90
2022/08/25 11:03:43;;;;;;;33.13;14.85;;;;;;;30.90;28.48;100454.53;4861456;23;20794;-90
2022/08/25 11:16:38;;;;;;;29.42;14.82;;;;;;;31.22;26.07;100433.47;3178568;23;20031;31
2022/08/25 11:19:50;;;;;;;26.80;13.43;;;;;;;31.31;26.52;100439.38;4829219;29;20058;-90
2022/08/25 11:22:42;;;;;;;36.80;15.48;;;;;;;30.86;27.58;100361.41;4833894;29;20049;-91
2022/08/25 11:25:33;;;;;;;35.97;15.05;;;;;;;31.42;27.06;100425.09;4834069;29;20076;-93
2022/08/25 11:28:34;;;;;;;27.75;15.10;;;;;;;31.41;27.05;100410.19;4865504;29;20054;-94
2022/08/25 11:31:02;;;;;;;27.65;14.75;;;;;;;31.29;28.01;100383.31;4847978;29;20050;-92
2022/08/25 14:21:11;;;;;;;23.87;13.70;;;;;;;31.73;26.54;100285.22;2557731;23;20327;-93
2022/08/25 14:30:33;;;;;;;45.30;15.27;;;;;;;31.59;27.11;100280.66;4917123;23;20049;-96
2022/08/25 14:41:02;;;;;;;54.45;15.10;;;;;;;31.35;26.71;100273.44;4909626;29;20478;-96
2022/08/25 14:47:11;;;;;;;29.92;17.33;;;;;;;30.60;26.01;100182.34;4912225;23;20083;-95
2022/08/25 14:53:05;;;;;;;25.20;14.82;;;;;;;30.66;27.26;100208.03;4875150;29;20135;-95
2022/08/25 15:09:20;;;;;;;25.27;14.85;;;;;;;30.50;28.96;100217.19;4889833;29;20049;-91
2022/08/25 15:11:59;;;;;;;44.47;14.68;;;;;;;30.12;27.70;100157.28;4860576;29;20065;-94
2022/08/25 15:14:50;;;;;;;63.72;15.55;;;;;;;30.35;29.63;100212.97;5081766;23;20092;-95
2022/08/25 15:17:23;;;;;;;34.10;15.13;;;;;;;30.30;28.90;100207.78;4907529;23;20060;-93
2022/08/25 15:20:22;;;;;;;39.88;14.93;;;;;;;30.45;30.09;100250.72;4901059;29;20506;-93
2022/08/25 15:36:37;;;;;;;52.13;19.58;;;;;;;29.75;33.67;100254.06;4950496;28;20052;-95
2022/08/25 15:43:35;;;;;;;40.80;16.52;;;;;;;28.73;33.35;100157.72;4870339;29;20102;-94
2022/08/25 15:46:35;;;;;;;;;;;;;;;;;;;;;
2022/08/25 15:49:36;;;;;;;101.25;18.20;;;;;;;28.60;34.17;100184.78;4872920;29;20067;-92
2022/08/25 15:52:04;;;;;;;106.00;19.77;;;;;;;28.47;33.96;100186.50;4855936;29;20071;-93
2022/08/25 15:58:31;;;;;;;58.83;16.40;;;;;;;28.17;33.10;100190.69;4926528;23;20048;-95
2022/08/25 16:01:06;;;;;;;75.80;18.10;;;;;;;27.88;33.01;100164.75;4898038;23;20422;-96
2022/08/25 16:10:15;;;;;;;42.47;16.38;;;;;;;27.87;33.77;100219.38;4884914;23;20470;-96
2022/08/25 16:12:44;;;;;;;29.48;15.52;;;;;;;27.66;33.52;100205.41;4880254;23;20152;-95
2022/08/25 16:16:05;;;;;;;32.72;16.25;;;;;;;27.68;33.78;100226.25;4888281;29;20077;-94
2022/08/25 16:22:16;;;;;;;43.50;16.27;;;;;;;27.74;34.43;100261.16;4884693;23;20078;-93
2022/08/25 16:25:27;;;;;;;32.75;15.32;;;;;;;27.65;34.53;100260.81;4880497;29;20052;-95
2022/08/25 16:28:01;;;;;;;28.27;16.00;;;;;;;26.79;34.55;100140.25;4876950;23;20053;-94
2022/08/25 16:30:52;;;;;;;40.92;15.95;;;;;;;27.47;35.41;100258.03;4857947;29;20048;-93
2022/08/25 16:33:32;;;;;;;61.25;16.27;;;;;;;27.27;34.62;100238.00;4836970;29;20144;-91
2022/08/25 16:36:23;;;;;;;37.13;16.33;;;;;;;26.80;34.64;100166.31;4856193;29;20048;-92
2022/08/25 16:38:51;;;;;;;33.10;14.90;;;;;;;27.07;34.65;100228.41;4841618;29;20049;-92
2022/08/25 16:44:16;;;;;;;27.98;15.65;;;;;;;26.41;36.52;100153.88;4873794;29;20057;-91
2022/08/25 17:21:34;;;;;;;35.20;16.42;;;;;;;26.14;36.13;100268.34;4972743;23;20479;-93
2022/08/25 17:27:50;;;;;;;46.53;17.38;;;;;;;26.06;36.21;100268.72;4981346;23;20051;-93
2022/08/25 17:30:43;;;;;;;38.05;16.42;;;;;;;25.45;36.64;100184.44;4915124;23;20052;-92
2022/08/25 17:33:14;;;;;;;59.00;18.10;;;;;;;25.84;37.99;100251.84;4859414;24;20049;-94
2022/08/25 17:35:56;;;;;;;46.95;16.73;;;;;;;25.32;38.93;100178.38;4843634;29;20037;-93
2022/08/25 17:39:00;;;;;;;36.20;17.15;;;;;;;25.83;38.03;100261.44;4842513;29;20080;-96
2022/08/25 17:42:01;;;;;;;39.50;16.45;;;;;;;25.17;37.85;100168.31;4848863;29;20065;-90
2022/08/25 17:44:33;;;;;;;39.75;16.50;;;;;;;25.18;38.15;100178.31;4862698;29;20468;-89
2022/08/25 17:47:53;;;;;;;35.90;16.75;;;;;;;25.69;38.99;100258.53;4849565;29;20046;-92
2022/08/25 17:54:17;;;;;;;33.33;16.45;;;;;;;25.54;37.45;100263.28;980905;23;20353;-90
2022/08/25 17:56:46;;;;;;;44.03;17.45;;;;;;;25.08;38.13;100197.41;4881580;23;20052;-93
2022/08/25 18:00:05;;;;;;;52.35;18.15;;;;;;;25.48;42.60;100268.44;4817429;29;20061;-91
2022/08/25 18:06:06;;;;;;;34.80;17.42;;;;;;;24.73;39.54;100197.13;4926915;23;20044;-93
2022/08/25 18:15:00;;;;;;;40.10;18.90;;;;;;;25.15;42.06;100271.41;4824791;29;20431;-91
2022/08/25 18:17:55;;;;;;;44.30;22.02;;;;;;;25.08;41.74;100269.34;4848545;24;20049;-92
2022/08/25 18:26:04;;;;;;;58.20;25.10;;;;;;;24.63;45.89;100231.41;4879992;23;20151;-91
2022/08/25 18:29:27;;;;;;;50.95;24.30;;;;;;;24.75;47.04;100268.28;4896472;23;20059;-92
2022/08/25 18:35:33;;;;;;;113.65;50.30;;;;;;;23.88;49.00;100175.56;4952493;23;20060;-96
2022/08/25 18:41:08;;;;;;;133.70;65.35;;;;;;;24.39;50.57;100278.28;5022149;23;20061;-95
2022/08/25 18:47:58;;;;;;;96.32;44.72;;;;;;;24.10;47.56;100269.56;4921695;23;20056;-92
2022/08/25 18:54:26;;;;;;;71.45;31.52;;;;;;;24.14;44.34;100270.44;4909778;23;20053;-94
2022/08/25 18:57:18;;;;;;;84.07;33.55;;;;;;;24.19;43.37;100265.69;4991519;23;20052;-91
2022/08/25 18:59:46;;;;;;;66.97;26.33;;;;;;;23.83;42.79;100204.63;4868218;29;20040;-91
2022/08/25 19:02:12;;;;;;;62.55;27.77;;;;;;;23.82;43.40;100199.44;4862039;29;20043;-93
2022/08/25 19:04:42;;;;;;;52.97;24.13;;;;;;;24.08;42.98;100234.84;4871759;29;20041;-93
2022/08/25 19:08:08;;;;;;;66.00;22.23;;;;;;;24.29;42.80;100259.41;4863006;29;20158;-94
2022/08/25 19:11:31;;;;;;;51.92;22.25;;;;;;;24.28;42.21;100258.59;4848640;29;20049;-93
2022/08/25 19:21:19;;;;;;;57.38;22.63;;;;;;;23.82;43.70;100200.22;4958638;23;20145;-93
2022/08/25 19:23:50;;;;;;;58.40;23.67;;;;;;;23.94;42.82;100220.69;4900190;23;20043;-92
2022/08/25 19:26:21;;;;;;;57.70;25.17;;;;;;;23.78;44.32;100195.81;4878271;29;20817;-93
2022/08/25 19:28:48;;;;;;;72.20;24.90;;;;;;;23.49;43.17;100152.75;4845337;29;20052;-93
2022/08/25 19:34:41;;;;;;;71.97;26.02;;;;;;;24.10;42.61;100254.81;902836;23;20335;-93
2022/08/25 19:43:12;;;;;;;57.40;22.70;;;;;;;23.75;42.97;100221.69;4865769;29;20053;-94
2022/08/25 19:52:40;;;;;;;;;;;;;;;;;;;;;
2022/08/25 19:56:12;;;;;;;;;;;;;;;24.04;41.62;100245.16;4927717;23;20141;-95
